createdAt,value
2023-04-03T00:02:05.551Z,2.80
2023-04-03T00:04:52.463Z,2.80
2023-04-03T00:07:39.256Z,2.80
2023-04-03T00:10:26.357Z,2.70
2023-04-03T00:13:13.500Z,2.80
2023-04-03T00:16:01.010Z,2.80
2023-04-03T00:18:48.991Z,2.80
2023-04-03T00:21:35.959Z,2.80
2023-04-03T00:24:23.274Z,2.80
2023-04-03T00:27:10.511Z,2.80
2023-04-03T00:29:57.199Z,2.70
2023-04-03T00:32:44.442Z,2.70
2023-04-03T00:35:32.875Z,2.70
2023-04-03T00:38:20.273Z,2.50
2023-04-03T00:41:07.431Z,2.50
2023-04-03T00:43:54.062Z,2.50
2023-04-03T00:46:40.968Z,2.40
2023-04-03T00:49:29.222Z,2.40
2023-04-03T00:52:21.364Z,2.40
2023-04-03T00:55:11.060Z,2.30
2023-04-03T00:57:58.834Z,2.30
2023-04-03T01:00:57.145Z,2.40
2023-04-03T01:03:44.341Z,2.30
2023-04-03T01:06:33.883Z,2.30
2023-04-03T01:09:22.242Z,2.30
2023-04-03T01:12:17.091Z,2.30
2023-04-03T01:15:07.015Z,2.40
2023-04-03T01:17:57.376Z,2.40
2023-04-03T01:21:29.756Z,2.40
2023-04-03T01:24:29.827Z,2.40
2023-04-03T01:27:19.355Z,2.40
2023-04-03T01:30:07.906Z,2.40
2023-04-03T01:32:56.875Z,2.40
2023-04-03T01:35:44.466Z,2.40
2023-04-03T01:38:31.852Z,2.30
2023-04-03T01:41:20.175Z,2.30
2023-04-03T01:44:14.202Z,2.30
2023-04-03T01:47:01.867Z,2.30
2023-04-03T01:50:03.273Z,2.40
2023-04-03T01:52:53.067Z,2.30
2023-04-03T01:55:48.661Z,2.40
2023-04-03T01:58:41.905Z,2.30
2023-04-03T02:01:29.878Z,2.40
2023-04-03T02:04:23.878Z,2.40
2023-04-03T02:07:17.772Z,2.30
2023-04-03T02:10:12.342Z,2.30
2023-04-03T02:15:52.630Z,2.30
2023-04-03T02:18:39.612Z,2.10
2023-04-03T02:21:26.771Z,2.00
2023-04-03T02:24:14.922Z,1.90
2023-04-03T02:27:02.861Z,1.90
2023-04-03T02:29:52.782Z,1.80
2023-04-03T02:32:54.192Z,1.90
2023-04-03T02:35:46.232Z,1.80
2023-04-03T02:38:39.276Z,1.80
2023-04-03T02:41:36.738Z,1.80
2023-04-03T02:47:09.756Z,1.80
2023-04-03T02:49:56.980Z,1.80
2023-04-03T02:52:44.150Z,1.80
2023-04-03T02:55:30.841Z,1.70
2023-04-03T02:58:19.463Z,1.70
2023-04-03T03:01:07.415Z,1.70
2023-04-03T03:03:54.231Z,1.60
2023-04-03T03:06:42.885Z,1.60
2023-04-03T03:09:30.499Z,1.60
2023-04-03T03:12:17.119Z,1.60
2023-04-03T03:15:05.913Z,1.50
2023-04-03T03:17:52.585Z,1.60
2023-04-03T03:20:39.939Z,1.60
2023-04-03T03:23:28.387Z,1.60
2023-04-03T03:26:15.530Z,1.50
2023-04-03T03:29:02.538Z,1.40
2023-04-03T03:31:51.079Z,1.40
2023-04-03T03:34:37.682Z,1.50
2023-04-03T03:37:24.390Z,1.40
2023-04-03T03:40:14.090Z,1.50
2023-04-03T03:43:00.875Z,1.50
2023-04-03T03:45:51.650Z,1.50
2023-04-03T03:48:39.909Z,1.40
2023-04-03T03:51:26.682Z,1.50
2023-04-03T03:54:13.588Z,1.50
2023-04-03T03:57:00.205Z,1.40
2023-04-03T03:59:48.182Z,1.40
2023-04-03T04:02:35.690Z,1.50
2023-04-03T04:05:24.208Z,1.40
2023-04-03T04:08:11.160Z,1.40
2023-04-03T04:10:58.192Z,1.40
2023-04-03T04:13:44.834Z,1.30
2023-04-03T04:16:31.484Z,1.30
2023-04-03T04:19:18.389Z,1.30
2023-04-03T04:22:06.601Z,1.40
2023-04-03T04:24:53.310Z,1.40
2023-04-03T04:27:40.464Z,1.40
2023-04-03T04:30:28.497Z,1.40
2023-04-03T04:33:15.984Z,1.40
2023-04-03T04:36:02.780Z,1.40
2023-04-03T04:38:53.787Z,1.40
2023-04-03T04:41:40.906Z,1.30
2023-04-03T04:44:27.937Z,1.30
2023-04-03T04:47:14.985Z,1.30
2023-04-03T04:50:02.075Z,1.30
2023-04-03T04:52:49.162Z,1.30
2023-04-03T04:55:37.390Z,1.20
2023-04-03T04:58:24.237Z,1.20
2023-04-03T05:01:13.007Z,1.30
2023-04-03T05:04:00.222Z,1.30
2023-04-03T05:06:46.901Z,1.30
2023-04-03T05:09:33.751Z,1.30
2023-04-03T05:12:22.125Z,1.20
2023-04-03T05:15:10.478Z,1.20
2023-04-03T05:17:57.059Z,1.20
2023-04-03T05:20:44.339Z,1.20
2023-04-03T05:23:31.368Z,1.20
2023-04-03T05:26:18.241Z,1.20
2023-04-03T05:29:06.527Z,1.20
2023-04-03T05:31:53.284Z,1.10
2023-04-03T05:34:40.083Z,1.10
2023-04-03T05:37:27.055Z,1.10
2023-04-03T05:40:14.338Z,1.20
2023-04-03T05:43:01.264Z,1.20
2023-04-03T05:45:50.244Z,1.20
2023-04-03T05:48:40.353Z,1.20
2023-04-03T05:51:31.129Z,1.20
2023-04-03T05:54:22.005Z,1.30
2023-04-03T05:57:09.329Z,1.30
2023-04-03T05:59:56.533Z,1.30
2023-04-03T06:02:45.771Z,1.30
2023-04-03T06:05:32.883Z,1.30
2023-04-03T06:08:19.778Z,1.20
2023-04-03T06:11:06.503Z,1.20
2023-04-03T06:13:53.597Z,1.20
2023-04-03T06:16:41.222Z,1.20
2023-04-03T06:19:29.928Z,1.30
2023-04-03T06:22:17.336Z,1.30
2023-04-03T06:25:04.854Z,1.30
2023-04-03T06:27:51.647Z,1.20
2023-04-03T06:30:39.073Z,1.20
2023-04-03T06:33:27.206Z,1.20
2023-04-03T06:36:15.361Z,1.20
2023-04-03T06:39:02.702Z,1.20
2023-04-03T06:41:50.333Z,1.20
2023-04-03T06:44:37.403Z,1.20
2023-04-03T06:47:24.224Z,1.10
2023-04-03T06:50:15.065Z,1.10
2023-04-03T06:53:04.596Z,1.00
2023-04-03T06:55:51.580Z,0.80
2023-04-03T06:58:38.447Z,0.90
2023-04-03T07:01:26.057Z,1.00
2023-04-03T07:04:13.686Z,1.10
2023-04-03T07:07:00.756Z,0.90
2023-04-03T07:09:49.095Z,0.80
2023-04-03T07:12:36.109Z,0.80
2023-04-03T07:15:23.149Z,0.80
2023-04-03T07:18:10.331Z,0.90
2023-04-03T07:20:57.729Z,0.90
2023-04-03T07:23:44.601Z,1.00
2023-04-03T07:26:32.920Z,0.90
2023-04-03T07:29:19.547Z,0.90
2023-04-03T07:32:07.974Z,1.00
2023-04-03T07:34:55.122Z,1.00
2023-04-03T07:37:42.123Z,1.20
2023-04-03T07:40:30.716Z,1.10
2023-04-03T07:43:19.748Z,1.00
2023-04-03T07:46:07.887Z,0.90
2023-04-03T07:48:56.574Z,0.90
2023-04-03T07:51:44.153Z,1.00
2023-04-03T07:54:31.349Z,0.90
2023-04-03T07:57:18.556Z,0.70
2023-04-03T08:00:08.534Z,0.70
2023-04-03T08:02:55.367Z,0.50
2023-04-03T08:05:44.083Z,0.50
2023-04-03T08:08:31.758Z,0.60
2023-04-03T08:11:19.728Z,0.60
2023-04-03T08:14:06.618Z,0.60
2023-04-03T08:16:56.125Z,0.50
2023-04-03T08:19:42.867Z,0.40
2023-04-03T08:22:29.646Z,0.50
2023-04-03T08:25:18.436Z,0.50
2023-04-03T08:28:05.100Z,0.40
2023-04-03T08:30:52.073Z,0.50
2023-04-03T08:33:41.765Z,0.40
2023-04-03T08:36:30.758Z,0.50
2023-04-03T08:39:17.288Z,0.40
2023-04-03T08:42:08.441Z,0.50
2023-04-03T08:45:01.519Z,0.50
2023-04-03T08:47:55.283Z,0.70
2023-04-03T08:50:50.005Z,0.90
2023-04-03T08:53:41.691Z,1.10
2023-04-03T08:56:29.163Z,1.30
2023-04-03T08:59:30.914Z,1.60
2023-04-03T09:02:28.500Z,1.80
2023-04-03T09:05:17.194Z,2.10
2023-04-03T09:08:14.593Z,2.20
2023-04-03T09:11:18.404Z,2.20
2023-04-03T09:14:15.817Z,1.90
2023-04-03T09:17:05.956Z,1.80
2023-04-03T09:20:00.623Z,2.00
2023-04-03T09:22:52.176Z,2.00
2023-04-03T09:25:41.314Z,2.10
2023-04-03T09:28:33.058Z,2.00
2023-04-03T09:31:25.675Z,2.00
2023-04-03T09:34:27.377Z,1.90
2023-04-03T09:37:41.237Z,2.00
2023-04-03T09:40:37.493Z,2.10
2023-04-03T09:43:30.394Z,2.10
2023-04-03T09:46:36.030Z,2.10
2023-04-03T09:49:23.612Z,2.00
2023-04-03T09:52:22.024Z,2.10
2023-04-03T09:55:16.383Z,2.00
2023-04-03T09:58:05.508Z,2.20
2023-04-03T10:00:56.832Z,2.30
2023-04-03T10:03:47.642Z,2.30
2023-04-03T10:06:37.654Z,2.40
2023-04-03T10:09:27.141Z,2.20
2023-04-03T10:12:21.936Z,2.30
2023-04-03T10:15:15.144Z,2.20
2023-04-03T10:18:21.668Z,2.40
2023-04-03T10:21:27.211Z,2.40
2023-04-03T10:24:20.261Z,2.30
2023-04-03T10:27:13.061Z,2.20
2023-04-03T10:30:12.028Z,2.20
2023-04-03T10:33:14.823Z,2.20
2023-04-03T10:36:12.900Z,2.30
2023-04-03T10:39:09.202Z,2.20
2023-04-03T10:42:16.705Z,2.40
2023-04-03T10:45:20.796Z,2.50
2023-04-03T10:48:13.981Z,2.60
2023-04-03T10:51:08.508Z,2.60
2023-04-03T10:54:01.122Z,2.80
2023-04-03T10:56:57.981Z,2.80
2023-04-03T10:59:51.842Z,2.80
2023-04-03T11:02:47.806Z,2.90
2023-04-03T11:05:41.604Z,2.70
2023-04-03T11:08:35.349Z,2.80
2023-04-03T11:11:26.826Z,3.00
2023-04-03T11:14:22.967Z,3.20
2023-04-03T11:17:21.578Z,3.10
2023-04-03T11:20:17.555Z,3.20
2023-04-03T11:23:08.017Z,3.10
2023-04-03T11:26:09.114Z,3.20
2023-04-03T11:29:00.805Z,3.10
2023-04-03T11:32:06.650Z,3.20
2023-04-03T11:34:59.650Z,3.20
2023-04-03T11:37:51.977Z,3.20
2023-04-03T11:40:41.646Z,3.00
2023-04-03T11:43:32.408Z,3.00
2023-04-03T11:46:20.782Z,3.00
2023-04-03T11:49:29.184Z,3.10
2023-04-03T11:52:54.212Z,3.00
2023-04-03T11:55:58.158Z,3.00
2023-04-03T11:59:23.164Z,3.00
2023-04-03T12:02:51.141Z,3.20
2023-04-03T12:05:40.889Z,3.30
2023-04-03T12:08:29.330Z,3.20
2023-04-03T12:11:27.463Z,3.30
2023-04-03T12:14:18.091Z,3.40
2023-04-03T12:17:20.773Z,3.20
2023-04-03T12:20:46.267Z,3.30
2023-04-03T12:23:35.633Z,3.20
2023-04-03T12:26:28.245Z,3.20
2023-04-03T12:29:25.783Z,3.30
2023-04-03T12:32:25.172Z,3.30
2023-04-03T12:35:19.386Z,3.30
2023-04-03T12:38:43.110Z,3.20
2023-04-03T12:41:40.767Z,3.30
2023-04-03T12:44:39.499Z,3.20
2023-04-03T12:47:30.482Z,3.20
2023-04-03T12:50:25.926Z,3.10
2023-04-03T12:53:16.778Z,2.90
2023-04-03T12:56:23.154Z,2.90
2023-04-03T12:59:21.083Z,3.10
2023-04-03T13:02:21.967Z,3.30
2023-04-03T13:05:11.795Z,3.50
2023-04-03T13:08:04.091Z,3.50
2023-04-03T13:10:57.289Z,3.50
2023-04-03T13:13:57.298Z,3.50
2023-04-03T13:16:56.578Z,3.40
2023-04-03T13:19:44.492Z,3.10
2023-04-03T13:22:40.031Z,3.10
2023-04-03T13:25:30.681Z,3.10
2023-04-03T13:28:21.426Z,3.40
2023-04-03T13:31:19.132Z,3.30
2023-04-03T13:34:13.004Z,3.30
2023-04-03T13:37:04.231Z,3.30
2023-04-03T13:40:01.293Z,3.20
2023-04-03T13:42:49.139Z,3.20
2023-04-03T13:45:37.906Z,3.10
2023-04-03T13:48:26.099Z,3.10
2023-04-03T13:51:27.669Z,3.00
2023-04-03T13:54:21.124Z,3.00
2023-04-03T13:57:16.968Z,3.10
2023-04-03T14:00:23.094Z,3.30
2023-04-03T14:03:20.789Z,3.30
2023-04-03T14:06:09.328Z,3.40
2023-04-03T14:08:57.740Z,3.50
2023-04-03T14:11:46.165Z,3.40
2023-04-03T14:14:35.464Z,3.60
2023-04-03T14:17:25.753Z,3.70
2023-04-03T14:20:17.806Z,3.70
2023-04-03T14:23:04.758Z,3.80
2023-04-03T14:25:53.172Z,3.60
2023-04-03T14:28:43.240Z,3.40
2023-04-03T14:31:31.155Z,3.20
2023-04-03T14:34:18.675Z,3.20
2023-04-03T14:37:07.344Z,3.00
2023-04-03T14:39:55.405Z,3.10
2023-04-03T14:42:43.997Z,3.20
2023-04-03T14:45:31.017Z,3.30
2023-04-03T14:48:21.784Z,3.10
2023-04-03T14:51:08.926Z,3.10
2023-04-03T14:53:56.962Z,3.00
2023-04-03T14:56:45.684Z,3.00
2023-04-03T14:59:34.226Z,2.90
2023-04-03T15:02:31.163Z,2.90
2023-04-03T15:05:20.672Z,2.90
2023-04-03T15:08:20.401Z,2.80
2023-04-03T15:11:15.339Z,2.80
2023-04-03T15:14:02.455Z,2.60
2023-04-03T15:16:51.896Z,2.70
2023-04-03T15:19:41.167Z,2.70
2023-04-03T15:22:29.117Z,2.70
2023-04-03T15:25:20.935Z,2.70
2023-04-03T15:28:12.382Z,2.70
2023-04-03T15:31:00.163Z,2.80
2023-04-03T15:33:48.882Z,2.90
2023-04-03T15:36:36.850Z,2.80
2023-04-03T15:39:24.550Z,2.80
2023-04-03T15:42:15.266Z,2.80
2023-04-03T15:45:08.512Z,2.80
2023-04-03T15:47:55.983Z,2.70
2023-04-03T15:50:45.319Z,2.60
2023-04-03T15:53:35.628Z,2.80
2023-04-03T15:56:22.930Z,2.40
2023-04-03T15:59:10.007Z,2.50
2023-04-03T16:01:57.202Z,2.40
2023-04-03T16:04:45.309Z,2.40
2023-04-03T16:07:33.952Z,2.30
2023-04-03T16:10:22.170Z,2.20
2023-04-03T16:13:09.561Z,2.30
2023-04-03T16:15:57.992Z,2.30
2023-04-03T16:18:47.797Z,2.30
2023-04-03T16:21:36.579Z,2.20
2023-04-03T16:24:25.241Z,2.30
2023-04-03T16:27:15.478Z,2.40
2023-04-03T16:30:03.162Z,2.20
2023-04-03T16:32:50.732Z,2.20
2023-04-03T16:35:43.159Z,2.20
2023-04-03T16:38:32.350Z,2.10
2023-04-03T16:41:20.987Z,1.90
2023-04-03T16:44:09.381Z,2.00
2023-04-03T16:46:57.409Z,2.00
2023-04-03T16:49:45.642Z,2.00
2023-04-03T16:52:33.358Z,2.00
2023-04-03T16:55:22.076Z,1.90
2023-04-03T16:58:13.818Z,1.90
2023-04-03T17:01:01.245Z,1.80
2023-04-03T17:03:48.989Z,1.90
2023-04-03T17:06:37.262Z,1.90
2023-04-03T17:09:24.884Z,1.80
2023-04-03T17:12:12.613Z,1.90
2023-04-03T17:15:01.744Z,1.90
2023-04-03T17:17:49.376Z,1.80
2023-04-03T17:20:39.069Z,1.70
2023-04-03T17:23:28.248Z,1.70
2023-04-03T17:26:16.182Z,1.70
2023-04-03T17:29:03.545Z,1.70
2023-04-03T17:31:55.093Z,1.70
2023-04-03T17:34:42.755Z,1.70
2023-04-03T17:37:31.091Z,1.70
2023-04-03T17:40:18.829Z,1.70
2023-04-03T17:43:07.369Z,1.60
2023-04-03T17:45:56.121Z,1.50
2023-04-03T17:48:46.242Z,1.40
2023-04-03T17:51:35.241Z,1.30
2023-04-03T17:54:22.446Z,1.30
2023-04-03T17:57:10.230Z,1.30
2023-04-03T17:59:57.621Z,1.30
2023-04-03T18:02:45.521Z,1.40
2023-04-03T18:05:34.843Z,1.20
2023-04-03T18:08:23.620Z,1.30
2023-04-03T18:11:12.306Z,1.20
2023-04-03T18:14:02.836Z,1.10
2023-04-03T18:16:50.841Z,1.00
2023-04-03T18:19:42.433Z,1.00
2023-04-03T18:22:35.003Z,0.80
2023-04-03T18:25:22.031Z,0.80
2023-04-03T18:28:09.698Z,0.70
2023-04-03T18:30:58.397Z,0.60
2023-04-03T18:33:45.910Z,0.50
2023-04-03T18:36:32.896Z,0.60
2023-04-03T18:39:23.994Z,0.40
2023-04-03T18:42:15.413Z,0.40
2023-04-03T18:45:05.980Z,0.30
2023-04-03T18:47:53.957Z,0.40
2023-04-03T18:50:40.816Z,0.50
2023-04-03T18:53:28.267Z,0.60
2023-04-03T18:56:16.823Z,0.50
2023-04-03T18:59:04.354Z,0.80
2023-04-03T19:01:52.016Z,0.60
2023-04-03T19:04:40.286Z,0.60
2023-04-03T19:07:27.975Z,0.60
2023-04-03T19:10:18.402Z,0.60
2023-04-03T19:13:07.461Z,0.60
2023-04-03T19:15:59.099Z,0.60
2023-04-03T19:18:46.298Z,0.60
2023-04-03T19:21:35.307Z,1.60
2023-04-03T19:24:22.830Z,0.70
2023-04-03T19:27:11.039Z,0.60
2023-04-03T19:30:00.564Z,0.60
2023-04-03T19:32:48.409Z,0.50
2023-04-03T19:35:37.199Z,1.00
2023-04-03T19:38:24.850Z,1.40
2023-04-03T19:41:14.829Z,0.50
2023-04-03T19:44:02.144Z,0.70
2023-04-03T19:46:51.774Z,0.70
2023-04-03T19:49:40.050Z,0.40
2023-04-03T19:52:29.509Z,0.50
2023-04-03T19:55:17.876Z,0.50
2023-04-03T19:58:05.347Z,0.20
2023-04-03T20:00:54.849Z,0.10
2023-04-03T20:03:47.512Z,0.20
2023-04-03T20:06:37.267Z,0.00
2023-04-03T20:09:24.786Z,-0.10
2023-04-03T20:12:12.464Z,-0.10
2023-04-03T20:15:04.280Z,-0.10
2023-04-03T20:17:51.644Z,-0.20
2023-04-03T20:20:43.554Z,-0.10
2023-04-03T20:23:32.438Z,-0.30
2023-04-03T20:26:24.617Z,-0.10
2023-04-03T20:29:11.762Z,-0.30
2023-04-03T20:31:58.705Z,-0.20
2023-04-03T20:34:57.400Z,-0.30
2023-04-03T20:37:50.151Z,-0.40
2023-04-03T20:40:41.740Z,-0.40
2023-04-03T20:43:28.802Z,-0.50
2023-04-03T20:46:19.724Z,0.00
2023-04-03T20:49:10.284Z,-0.50
2023-04-03T20:51:57.563Z,-0.60
2023-04-03T20:54:46.033Z,-0.60
2023-04-03T20:57:35.377Z,-0.60
2023-04-03T21:00:23.366Z,-0.60
2023-04-03T21:03:12.655Z,-0.60
2023-04-03T21:06:01.034Z,-0.70
2023-04-03T21:09:25.996Z,-0.70
2023-04-03T21:12:51.059Z,-0.80
2023-04-03T21:15:52.202Z,-0.80
2023-04-03T21:19:00.818Z,-0.80
2023-04-03T21:21:49.212Z,-0.90
2023-04-03T21:24:39.009Z,-0.80
2023-04-03T21:27:26.658Z,-1.00
2023-04-03T21:30:15.697Z,-0.60
2023-04-03T21:33:02.959Z,-1.00
2023-04-03T21:35:58.010Z,-1.00
2023-04-03T21:38:54.862Z,-0.90
2023-04-03T21:41:40.047Z,-1.10
2023-04-03T21:44:27.717Z,-1.00
2023-04-03T21:47:16.192Z,-1.00
2023-04-03T21:50:02.674Z,-1.00
2023-04-03T21:52:53.970Z,-1.00
2023-04-03T21:55:40.969Z,-0.90
2023-04-03T21:58:32.126Z,-1.10
2023-04-03T22:01:20.220Z,-1.10
2023-04-03T22:04:07.061Z,-1.20
2023-04-03T22:06:53.845Z,-1.20
2023-04-03T22:09:41.988Z,-1.20
2023-04-03T22:12:29.917Z,-1.20
2023-04-03T22:15:17.004Z,-1.20
2023-04-03T22:18:04.205Z,-1.30
2023-04-03T22:20:51.233Z,-1.40
2023-04-03T22:23:38.726Z,-1.50
2023-04-03T22:26:27.482Z,-1.40
2023-04-03T22:29:14.686Z,-1.40
2023-04-03T22:32:01.256Z,-1.40
2023-04-03T22:34:48.616Z,-1.40
2023-04-03T22:37:35.564Z,-1.40
2023-04-03T22:40:22.535Z,-1.40
2023-04-03T22:43:10.976Z,-1.40
2023-04-03T22:45:58.640Z,-1.40
2023-04-03T22:48:46.244Z,-1.50
2023-04-03T22:51:33.350Z,-1.50
2023-04-03T22:54:20.102Z,-1.50
2023-04-03T22:57:07.069Z,-1.40
2023-04-03T22:59:55.465Z,-1.50
2023-04-03T23:02:43.465Z,-1.50
2023-04-03T23:05:30.592Z,-1.50
2023-04-03T23:08:17.707Z,-1.60
2023-04-03T23:11:04.907Z,-1.60
2023-04-03T23:13:52.170Z,-1.60
2023-04-03T23:16:42.086Z,-1.70
2023-04-03T23:19:28.946Z,-1.70
2023-04-03T23:22:16.525Z,-1.70
2023-04-03T23:25:03.526Z,-1.70
2023-04-03T23:27:52.716Z,-1.70
2023-04-03T23:30:39.904Z,-1.70
2023-04-03T23:33:28.440Z,-1.70
2023-04-03T23:36:16.144Z,-1.70
2023-04-03T23:39:03.774Z,-1.70
2023-04-03T23:41:50.940Z,-1.70
2023-04-03T23:44:37.969Z,-1.80
2023-04-03T23:47:25.331Z,-1.80
2023-04-03T23:50:14.006Z,-1.80
2023-04-03T23:53:01.091Z,-1.80
2023-04-03T23:55:47.696Z,-1.90
2023-04-03T23:58:34.853Z,-1.90
